sensor_id;sensor_type;location;lat;lon;timestamp;temperature;humidity
4811;DHT22;2419;51.276;6.472;2022-08-16T00:02:30;19.90;99.90
4811;DHT22;2419;51.276;6.472;2022-08-16T00:04:59;19.90;99.90
4811;DHT22;2419;51.276;6.472;2022-08-16T00:07:27;19.90;99.90
4811;DHT22;2419;51.276;6.472;2022-08-16T00:09:55;19.90;99.90
4811;DHT22;2419;51.276;6.472;2022-08-16T00:12:24;19.90;99.90
4811;DHT22;2419;51.276;6.472;2022-08-16T00:14:55;19.90;99.90
4811;DHT22;2419;51.276;6.472;2022-08-16T00:17:26;19.90;99.90
4811;DHT22;2419;51.276;6.472;2022-08-16T00:20:14;19.90;99.90
4811;DHT22;2419;51.276;6.472;2022-08-16T00:22:47;20.20;99.90
4811;DHT22;2419;51.276;6.472;2022-08-16T00:25:19;20.30;99.90
4811;DHT22;2419;51.276;6.472;2022-08-16T00:28:07;20.50;99.90
4811;DHT22;2419;51.276;6.472;2022-08-16T00:30:38;20.60;99.90
4811;DHT22;2419;51.276;6.472;2022-08-16T00:33:08;20.70;99.90
4811;DHT22;2419;51.276;6.472;2022-08-16T00:35:38;20.70;99.90
4811;DHT22;2419;51.276;6.472;2022-08-16T00:38:06;20.80;99.90
4811;DHT22;2419;51.276;6.472;2022-08-16T00:40:55;20.70;99.90
4811;DHT22;2419;51.276;6.472;2022-08-16T00:43:26;20.80;99.90
4811;DHT22;2419;51.276;6.472;2022-08-16T00:46:14;20.80;99.90
4811;DHT22;2419;51.276;6.472;2022-08-16T00:49:03;20.80;99.90
4811;DHT22;2419;51.276;6.472;2022-08-16T00:51:32;20.80;99.80
4811;DHT22;2419;51.276;6.472;2022-08-16T00:54:04;20.80;97.50
4811;DHT22;2419;51.276;6.472;2022-08-16T00:56:41;20.80;96.90
4811;DHT22;2419;51.276;6.472;2022-08-16T00:59:28;20.80;96.10
4811;DHT22;2419;51.276;6.472;2022-08-16T01:02:04;20.80;96.30
4811;DHT22;2419;51.276;6.472;2022-08-16T01:04:52;20.80;94.60
4811;DHT22;2419;51.276;6.472;2022-08-16T01:07:37;20.80;96.40
4811;DHT22;2419;51.276;6.472;2022-08-16T01:10:19;20.80;95.70
4811;DHT22;2419;51.276;6.472;2022-08-16T01:12:59;20.70;93.40
4811;DHT22;2419;51.276;6.472;2022-08-16T01:15:32;20.80;91.20
4811;DHT22;2419;51.276;6.472;2022-08-16T01:18:02;20.80;91.50
4811;DHT22;2419;51.276;6.472;2022-08-16T01:20:33;20.80;91.30
4811;DHT22;2419;51.276;6.472;2022-08-16T01:23:06;20.70;90.80
4811;DHT22;2419;51.276;6.472;2022-08-16T01:25:41;20.70;90.80
4811;DHT22;2419;51.276;6.472;2022-08-16T01:28:26;20.70;90.00
4811;DHT22;2419;51.276;6.472;2022-08-16T01:30:57;20.60;90.50
4811;DHT22;2419;51.276;6.472;2022-08-16T01:33:26;20.50;91.90
4811;DHT22;2419;51.276;6.472;2022-08-16T01:36:05;20.50;92.20
4811;DHT22;2419;51.276;6.472;2022-08-16T01:38:40;20.50;91.30
4811;DHT22;2419;51.276;6.472;2022-08-16T01:41:19;20.50;91.00
4811;DHT22;2419;51.276;6.472;2022-08-16T01:43:50;20.40;91.90
4811;DHT22;2419;51.276;6.472;2022-08-16T01:46:26;20.40;91.10
4811;DHT22;2419;51.276;6.472;2022-08-16T01:49:23;20.20;93.60
4811;DHT22;2419;51.276;6.472;2022-08-16T01:52:14;20.20;93.70
4811;DHT22;2419;51.276;6.472;2022-08-16T01:55:25;20.10;95.00
4811;DHT22;2419;51.276;6.472;2022-08-16T01:58:04;20.10;96.40
4811;DHT22;2419;51.276;6.472;2022-08-16T02:00:37;20.00;96.70
4811;DHT22;2419;51.276;6.472;2022-08-16T02:03:06;20.00;97.80
4811;DHT22;2419;51.276;6.472;2022-08-16T02:05:38;20.00;95.90
4811;DHT22;2419;51.276;6.472;2022-08-16T02:08:12;19.90;97.00
4811;DHT22;2419;51.276;6.472;2022-08-16T02:11:02;19.90;97.70
4811;DHT22;2419;51.276;6.472;2022-08-16T02:13:32;19.80;98.50
4811;DHT22;2419;51.276;6.472;2022-08-16T02:16:01;19.80;97.40
4811;DHT22;2419;51.276;6.472;2022-08-16T02:18:44;19.80;99.00
4811;DHT22;2419;51.276;6.472;2022-08-16T02:21:14;19.80;99.90
4811;DHT22;2419;51.276;6.472;2022-08-16T02:23:42;19.70;99.90
4811;DHT22;2419;51.276;6.472;2022-08-16T02:26:12;19.70;99.90
4811;DHT22;2419;51.276;6.472;2022-08-16T02:28:46;19.60;99.90
4811;DHT22;2419;51.276;6.472;2022-08-16T02:31:18;19.60;99.90
4811;DHT22;2419;51.276;6.472;2022-08-16T02:34:06;19.50;99.90
4811;DHT22;2419;51.276;6.472;2022-08-16T02:36:39;19.40;99.90
4811;DHT22;2419;51.276;6.472;2022-08-16T02:39:19;19.30;99.90
4811;DHT22;2419;51.276;6.472;2022-08-16T02:41:50;19.20;99.90
4811;DHT22;2419;51.276;6.472;2022-08-16T02:44:22;19.10;99.90
4811;DHT22;2419;51.276;6.472;2022-08-16T02:46:54;19.10;99.90
4811;DHT22;2419;51.276;6.472;2022-08-16T02:49:24;19.10;99.90
4811;DHT22;2419;51.276;6.472;2022-08-16T02:52:14;19.10;99.90
4811;DHT22;2419;51.276;6.472;2022-08-16T02:54:58;19.10;99.90
4811;DHT22;2419;51.276;6.472;2022-08-16T02:57:27;19.10;99.90
4811;DHT22;2419;51.276;6.472;2022-08-16T02:59:58;19.10;99.90
4811;DHT22;2419;51.276;6.472;2022-08-16T03:02:48;19.10;99.90
4811;DHT22;2419;51.276;6.472;2022-08-16T03:05:22;18.90;99.90
4811;DHT22;2419;51.276;6.472;2022-08-16T03:07:57;18.90;99.90
4811;DHT22;2419;51.276;6.472;2022-08-16T03:10:34;18.70;99.90
4811;DHT22;2419;51.276;6.472;2022-08-16T03:13:05;18.70;99.90
4811;DHT22;2419;51.276;6.472;2022-08-16T03:15:41;18.70;99.90
4811;DHT22;2419;51.276;6.472;2022-08-16T03:18:10;18.60;99.90
4811;DHT22;2419;51.276;6.472;2022-08-16T03:20:59;18.60;99.90
4811;DHT22;2419;51.276;6.472;2022-08-16T03:23:29;18.40;99.90
4811;DHT22;2419;51.276;6.472;2022-08-16T03:26:03;18.40;99.90
4811;DHT22;2419;51.276;6.472;2022-08-16T03:28:31;18.10;99.90
4811;DHT22;2419;51.276;6.472;2022-08-16T03:31:01;18.00;99.90
4811;DHT22;2419;51.276;6.472;2022-08-16T03:33:31;18.00;99.90
4811;DHT22;2419;51.276;6.472;2022-08-16T03:36:01;18.10;99.90
4811;DHT22;2419;51.276;6.472;2022-08-16T03:38:54;18.00;99.90
4811;DHT22;2419;51.276;6.472;2022-08-16T03:41:22;17.90;99.90
4811;DHT22;2419;51.276;6.472;2022-08-16T03:44:12;17.90;99.90
4811;DHT22;2419;51.276;6.472;2022-08-16T03:47:02;17.90;99.90
4811;DHT22;2419;51.276;6.472;2022-08-16T03:49:36;17.90;99.90
4811;DHT22;2419;51.276;6.472;2022-08-16T03:52:06;17.80;99.90
4811;DHT22;2419;51.276;6.472;2022-08-16T03:54:36;17.70;99.90
4811;DHT22;2419;51.276;6.472;2022-08-16T03:57:19;17.60;99.90
4811;DHT22;2419;51.276;6.472;2022-08-16T03:59:48;17.50;99.90
4811;DHT22;2419;51.276;6.472;2022-08-16T04:02:19;17.60;99.90
4811;DHT22;2419;51.276;6.472;2022-08-16T04:04:59;17.50;99.90
4811;DHT22;2419;51.276;6.472;2022-08-16T04:07:30;17.60;99.90
4811;DHT22;2419;51.276;6.472;2022-08-16T04:10:00;17.60;99.90
4811;DHT22;2419;51.276;6.472;2022-08-16T04:12:49;17.60;99.90
4811;DHT22;2419;51.276;6.472;2022-08-16T04:15:21;17.60;99.90
4811;DHT22;2419;51.276;6.472;2022-08-16T04:18:08;17.60;99.90
4811;DHT22;2419;51.276;6.472;2022-08-16T04:20:37;17.50;99.90
4811;DHT22;2419;51.276;6.472;2022-08-16T04:23:06;17.50;99.90
4811;DHT22;2419;51.276;6.472;2022-08-16T04:25:37;17.60;99.90
4811;DHT22;2419;51.276;6.472;2022-08-16T04:28:08;17.60;99.90
4811;DHT22;2419;51.276;6.472;2022-08-16T04:30:57;17.50;99.90
4811;DHT22;2419;51.276;6.472;2022-08-16T04:33:27;17.60;99.90
4811;DHT22;2419;51.276;6.472;2022-08-16T04:36:01;17.50;99.90
4811;DHT22;2419;51.276;6.472;2022-08-16T04:38:30;17.50;99.90
4811;DHT22;2419;51.276;6.472;2022-08-16T04:40:58;17.50;99.90
4811;DHT22;2419;51.276;6.472;2022-08-16T04:43:28;17.50;99.90
4811;DHT22;2419;51.276;6.472;2022-08-16T04:45:59;17.50;99.90
4811;DHT22;2419;51.276;6.472;2022-08-16T04:48:35;17.50;99.90
4811;DHT22;2419;51.276;6.472;2022-08-16T04:51:09;17.50;99.90
4811;DHT22;2419;51.276;6.472;2022-08-16T04:53:43;17.50;99.90
4811;DHT22;2419;51.276;6.472;2022-08-16T04:56:13;17.40;99.90
4811;DHT22;2419;51.276;6.472;2022-08-16T04:58:42;17.50;99.90
4811;DHT22;2419;51.276;6.472;2022-08-16T05:01:15;17.40;99.90
4811;DHT22;2419;51.276;6.472;2022-08-16T05:03:46;17.50;99.90
4811;DHT22;2419;51.276;6.472;2022-08-16T05:06:32;17.60;99.90
4811;DHT22;2419;51.276;6.472;2022-08-16T05:09:17;17.60;99.90
4811;DHT22;2419;51.276;6.472;2022-08-16T05:11:51;17.90;99.90
4811;DHT22;2419;51.276;6.472;2022-08-16T05:14:24;18.50;99.90
4811;DHT22;2419;51.276;6.472;2022-08-16T05:17:16;18.80;99.90
4811;DHT22;2419;51.276;6.472;2022-08-16T05:19:46;19.30;99.90
4811;DHT22;2419;51.276;6.472;2022-08-16T05:22:26;19.60;99.90
4811;DHT22;2419;51.276;6.472;2022-08-16T05:24:59;19.80;99.90
4811;DHT22;2419;51.276;6.472;2022-08-16T05:27:36;20.00;99.90
4811;DHT22;2419;51.276;6.472;2022-08-16T05:30:12;19.90;99.90
4811;DHT22;2419;51.276;6.472;2022-08-16T05:33:02;19.60;99.90
4811;DHT22;2419;51.276;6.472;2022-08-16T05:35:32;19.30;99.90
4811;DHT22;2419;51.276;6.472;2022-08-16T05:38:09;19.20;99.90
4811;DHT22;2419;51.276;6.472;2022-08-16T05:41:01;19.10;99.90
4811;DHT22;2419;51.276;6.472;2022-08-16T05:43:37;19.00;99.90
4811;DHT22;2419;51.276;6.472;2022-08-16T05:46:16;19.30;99.90
4811;DHT22;2419;51.276;6.472;2022-08-16T05:49:04;19.30;99.90
4811;DHT22;2419;51.276;6.472;2022-08-16T05:51:39;19.20;99.90
4811;DHT22;2419;51.276;6.472;2022-08-16T05:54:11;19.40;99.90
4811;DHT22;2419;51.276;6.472;2022-08-16T05:56:41;19.80;99.90
4811;DHT22;2419;51.276;6.472;2022-08-16T05:59:17;19.90;99.90
4811;DHT22;2419;51.276;6.472;2022-08-16T06:01:48;20.70;99.90
4811;DHT22;2419;51.276;6.472;2022-08-16T06:04:21;21.20;99.90
4811;DHT22;2419;51.276;6.472;2022-08-16T06:07:05;21.40;99.90
4811;DHT22;2419;51.276;6.472;2022-08-16T06:09:56;21.20;99.90
4811;DHT22;2419;51.276;6.472;2022-08-16T06:12:28;21.00;99.90
4811;DHT22;2419;51.276;6.472;2022-08-16T06:15:06;20.70;99.90
4811;DHT22;2419;51.276;6.472;2022-08-16T06:17:38;20.50;99.90
4811;DHT22;2419;51.276;6.472;2022-08-16T06:20:18;20.30;99.90
4811;DHT22;2419;51.276;6.472;2022-08-16T06:22:53;20.10;99.90
4811;DHT22;2419;51.276;6.472;2022-08-16T06:25:44;20.10;99.90
4811;DHT22;2419;51.276;6.472;2022-08-16T06:28:20;20.10;99.90
4811;DHT22;2419;51.276;6.472;2022-08-16T06:31:04;20.20;99.90
4811;DHT22;2419;51.276;6.472;2022-08-16T06:33:32;20.30;99.90
4811;DHT22;2419;51.276;6.472;2022-08-16T06:36:08;20.30;99.90
4811;DHT22;2419;51.276;6.472;2022-08-16T06:38:39;20.50;99.90
4811;DHT22;2419;51.276;6.472;2022-08-16T06:41:35;20.60;99.90
4811;DHT22;2419;51.276;6.472;2022-08-16T06:44:09;20.70;99.90
4811;DHT22;2419;51.276;6.472;2022-08-16T06:46:49;20.90;99.90
4811;DHT22;2419;51.276;6.472;2022-08-16T06:49:19;21.20;99.90
4811;DHT22;2419;51.276;6.472;2022-08-16T06:51:48;21.20;99.90
4811;DHT22;2419;51.276;6.472;2022-08-16T06:54:24;21.20;99.90
4811;DHT22;2419;51.276;6.472;2022-08-16T06:56:54;21.20;99.90
4811;DHT22;2419;51.276;6.472;2022-08-16T06:59:22;21.20;99.90
4811;DHT22;2419;51.276;6.472;2022-08-16T07:01:53;21.40;99.90
4811;DHT22;2419;51.276;6.472;2022-08-16T07:04:26;21.60;99.90
4811;DHT22;2419;51.276;6.472;2022-08-16T07:07:01;21.60;99.90
4811;DHT22;2419;51.276;6.472;2022-08-16T07:09:33;21.70;99.90
4811;DHT22;2419;51.276;6.472;2022-08-16T07:12:01;21.70;99.90
4811;DHT22;2419;51.276;6.472;2022-08-16T07:14:34;21.70;99.90
4811;DHT22;2419;51.276;6.472;2022-08-16T07:17:04;22.00;99.90
4811;DHT22;2419;51.276;6.472;2022-08-16T07:19:41;22.00;99.90
4811;DHT22;2419;51.276;6.472;2022-08-16T07:22:38;21.90;99.90
4811;DHT22;2419;51.276;6.472;2022-08-16T07:25:18;22.00;99.90
4811;DHT22;2419;51.276;6.472;2022-08-16T07:27:49;22.30;99.90
4811;DHT22;2419;51.276;6.472;2022-08-16T07:30:22;22.30;99.90
4811;DHT22;2419;51.276;6.472;2022-08-16T07:42:37;22.60;99.90
4811;DHT22;2419;51.276;6.472;2022-08-16T07:45:07;22.70;99.90
4811;DHT22;2419;51.276;6.472;2022-08-16T07:47:39;22.80;99.90
4811;DHT22;2419;51.276;6.472;2022-08-16T07:58:40;23.30;99.90
4811;DHT22;2419;51.276;6.472;2022-08-16T08:01:14;23.40;99.80
4811;DHT22;2419;51.276;6.472;2022-08-16T08:20:26;24.30;95.50
4811;DHT22;2419;51.276;6.472;2022-08-16T08:22:59;24.40;87.30
4811;DHT22;2419;51.276;6.472;2022-08-16T08:25:35;24.20;92.30
4811;DHT22;2419;51.276;6.472;2022-08-16T08:28:22;24.30;91.60
4811;DHT22;2419;51.276;6.472;2022-08-16T08:30:57;24.50;90.40
4811;DHT22;2419;51.276;6.472;2022-08-16T08:33:28;24.70;84.00
4811;DHT22;2419;51.276;6.472;2022-08-16T08:36:00;24.50;83.90
4811;DHT22;2419;51.276;6.472;2022-08-16T08:38:31;24.50;79.50
4811;DHT22;2419;51.276;6.472;2022-08-16T08:41:15;24.60;79.70
4811;DHT22;2419;51.276;6.472;2022-08-16T08:43:51;24.90;80.60
4811;DHT22;2419;51.276;6.472;2022-08-16T08:46:21;25.00;74.50
4811;DHT22;2419;51.276;6.472;2022-08-16T08:48:53;25.20;64.10
4811;DHT22;2419;51.276;6.472;2022-08-16T08:51:29;25.30;31.90
4811;DHT22;2419;51.276;6.472;2022-08-16T08:54:05;25.20;22.00
4811;DHT22;2419;51.276;6.472;2022-08-16T08:56:38;25.10;21.60
4811;DHT22;2419;51.276;6.472;2022-08-16T08:59:32;25.10;9.00
4811;DHT22;2419;51.276;6.472;2022-08-16T09:02:08;25.20;5.90
4811;DHT22;2419;51.276;6.472;2022-08-16T09:04:45;25.40;1.00
4811;DHT22;2419;51.276;6.472;2022-08-16T09:07:18;25.60;1.00
4811;DHT22;2419;51.276;6.472;2022-08-16T09:09:50;25.90;1.00
4811;DHT22;2419;51.276;6.472;2022-08-16T09:12:34;26.10;1.00
4811;DHT22;2419;51.276;6.472;2022-08-16T09:15:18;26.30;99.90
4811;DHT22;2419;51.276;6.472;2022-08-16T09:17:48;26.30;99.90
4811;DHT22;2419;51.276;6.472;2022-08-16T09:20:24;26.30;99.90
4811;DHT22;2419;51.276;6.472;2022-08-16T09:22:55;26.30;99.90
4811;DHT22;2419;51.276;6.472;2022-08-16T09:25:31;26.30;99.90
4811;DHT22;2419;51.276;6.472;2022-08-16T09:28:21;26.60;99.90
4811;DHT22;2419;51.276;6.472;2022-08-16T09:31:30;27.40;99.90
4811;DHT22;2419;51.276;6.472;2022-08-16T09:33:58;28.20;1.00
4811;DHT22;2419;51.276;6.472;2022-08-16T09:36:28;28.50;1.00
4811;DHT22;2419;51.276;6.472;2022-08-16T09:39:02;29.00;1.00
4811;DHT22;2419;51.276;6.472;2022-08-16T09:41:31;29.40;1.00
4811;DHT22;2419;51.276;6.472;2022-08-16T09:43:59;29.30;99.90
4811;DHT22;2419;51.276;6.472;2022-08-16T09:46:49;29.10;99.90
4811;DHT22;2419;51.276;6.472;2022-08-16T09:49:23;28.60;99.90
4811;DHT22;2419;51.276;6.472;2022-08-16T09:52:03;28.10;99.90
4811;DHT22;2419;51.276;6.472;2022-08-16T09:54:33;27.90;9.30
4811;DHT22;2419;51.276;6.472;2022-08-16T09:57:02;27.60;46.00
4811;DHT22;2419;51.276;6.472;2022-08-16T09:59:30;28.30;99.90
4811;DHT22;2419;51.276;6.472;2022-08-16T10:02:05;28.90;99.90
4811;DHT22;2419;51.276;6.472;2022-08-16T10:04:54;29.90;1.00
4811;DHT22;2419;51.276;6.472;2022-08-16T10:07:24;30.60;37.70
4811;DHT22;2419;51.276;6.472;2022-08-16T10:10:12;30.30;99.90
4811;DHT22;2419;51.276;6.472;2022-08-16T10:12:57;31.20;99.90
4811;DHT22;2419;51.276;6.472;2022-08-16T10:15:44;31.50;99.90
4811;DHT22;2419;51.276;6.472;2022-08-16T10:18:22;31.90;99.90
4811;DHT22;2419;51.276;6.472;2022-08-16T10:21:11;32.70;99.90
4811;DHT22;2419;51.276;6.472;2022-08-16T10:23:41;32.90;1.00
4811;DHT22;2419;51.276;6.472;2022-08-16T10:26:12;32.90;99.90
4811;DHT22;2419;51.276;6.472;2022-08-16T10:29:00;32.80;99.90
4811;DHT22;2419;51.276;6.472;2022-08-16T10:31:30;32.60;99.90
4811;DHT22;2419;51.276;6.472;2022-08-16T10:34:12;32.10;99.90
4811;DHT22;2419;51.276;6.472;2022-08-16T10:36:58;32.80;99.90
4811;DHT22;2419;51.276;6.472;2022-08-16T10:39:27;32.30;99.90
4811;DHT22;2419;51.276;6.472;2022-08-16T10:42:08;32.10;99.90
4811;DHT22;2419;51.276;6.472;2022-08-16T10:44:39;32.60;99.90
4811;DHT22;2419;51.276;6.472;2022-08-16T10:47:08;33.30;99.90
4811;DHT22;2419;51.276;6.472;2022-08-16T10:49:37;32.50;35.60
4811;DHT22;2419;51.276;6.472;2022-08-16T10:52:07;32.50;1.00
4811;DHT22;2419;51.276;6.472;2022-08-16T10:54:45;33.40;1.00
4811;DHT22;2419;51.276;6.472;2022-08-16T10:57:34;33.40;1.00
4811;DHT22;2419;51.276;6.472;2022-08-16T11:00:05;32.80;1.00
4811;DHT22;2419;51.276;6.472;2022-08-16T11:02:48;33.00;1.00
4811;DHT22;2419;51.276;6.472;2022-08-16T11:05:28;33.10;1.00
4811;DHT22;2419;51.276;6.472;2022-08-16T11:08:16;32.90;99.90
4811;DHT22;2419;51.276;6.472;2022-08-16T11:11:02;32.40;99.90
4811;DHT22;2419;51.276;6.472;2022-08-16T11:13:46;31.30;99.90
4811;DHT22;2419;51.276;6.472;2022-08-16T11:16:24;30.60;99.90
4811;DHT22;2419;51.276;6.472;2022-08-16T11:19:14;30.50;99.90
4811;DHT22;2419;51.276;6.472;2022-08-16T11:21:43;30.00;99.90
4811;DHT22;2419;51.276;6.472;2022-08-16T11:24:31;29.60;99.90
4811;DHT22;2419;51.276;6.472;2022-08-16T11:27:12;29.70;8.70
4811;DHT22;2419;51.276;6.472;2022-08-16T11:29:52;30.40;91.40
4811;DHT22;2419;51.276;6.472;2022-08-16T11:32:23;31.40;99.90
4811;DHT22;2419;51.276;6.472;2022-08-16T11:35:00;31.90;99.90
4811;DHT22;2419;51.276;6.472;2022-08-16T11:37:43;30.50;99.90
4811;DHT22;2419;51.276;6.472;2022-08-16T11:40:34;29.80;99.90
4811;DHT22;2419;51.276;6.472;2022-08-16T11:43:04;30.80;99.90
4811;DHT22;2419;51.276;6.472;2022-08-16T11:45:37;32.20;90.30
4811;DHT22;2419;51.276;6.472;2022-08-16T11:48:08;31.90;99.90
4811;DHT22;2419;51.276;6.472;2022-08-16T11:50:36;31.50;65.50
4811;DHT22;2419;51.276;6.472;2022-08-16T11:53:05;32.00;99.90
4811;DHT22;2419;51.276;6.472;2022-08-16T11:55:35;32.40;99.90
4811;DHT22;2419;51.276;6.472;2022-08-16T11:58:05;32.50;99.90
4811;DHT22;2419;51.276;6.472;2022-08-16T12:00:34;31.80;99.90
4811;DHT22;2419;51.276;6.472;2022-08-16T12:03:20;31.40;99.90
4811;DHT22;2419;51.276;6.472;2022-08-16T12:06:04;31.50;99.90
4811;DHT22;2419;51.276;6.472;2022-08-16T12:08:37;32.20;99.90
4811;DHT22;2419;51.276;6.472;2022-08-16T12:11:07;32.60;99.90
4811;DHT22;2419;51.276;6.472;2022-08-16T12:13:35;31.30;99.90
4811;DHT22;2419;51.276;6.472;2022-08-16T12:16:04;31.10;99.90
4811;DHT22;2419;51.276;6.472;2022-08-16T12:18:37;30.60;99.90
4811;DHT22;2419;51.276;6.472;2022-08-16T12:21:06;30.70;99.90
4811;DHT22;2419;51.276;6.472;2022-08-16T12:23:36;30.40;99.90
4811;DHT22;2419;51.276;6.472;2022-08-16T12:26:05;30.60;99.90
4811;DHT22;2419;51.276;6.472;2022-08-16T12:28:36;30.20;99.90
4811;DHT22;2419;51.276;6.472;2022-08-16T12:31:22;30.30;99.90
4811;DHT22;2419;51.276;6.472;2022-08-16T12:33:53;30.40;99.90
4811;DHT22;2419;51.276;6.472;2022-08-16T12:36:24;30.20;99.90
4811;DHT22;2419;51.276;6.472;2022-08-16T12:38:56;30.70;99.90
4811;DHT22;2419;51.276;6.472;2022-08-16T12:41:24;31.10;99.90
4811;DHT22;2419;51.276;6.472;2022-08-16T12:43:53;30.80;99.90
4811;DHT22;2419;51.276;6.472;2022-08-16T12:46:27;30.40;99.90
4811;DHT22;2419;51.276;6.472;2022-08-16T12:49:00;30.10;99.90
4811;DHT22;2419;51.276;6.472;2022-08-16T12:51:32;29.50;99.90
4811;DHT22;2419;51.276;6.472;2022-08-16T12:54:24;29.30;99.90
4811;DHT22;2419;51.276;6.472;2022-08-16T12:56:53;29.20;99.90
4811;DHT22;2419;51.276;6.472;2022-08-16T12:59:22;29.10;99.90
4811;DHT22;2419;51.276;6.472;2022-08-16T13:01:56;29.00;99.90
4811;DHT22;2419;51.276;6.472;2022-08-16T13:04:30;29.10;99.90
4811;DHT22;2419;51.276;6.472;2022-08-16T13:06:59;30.00;99.90
4811;DHT22;2419;51.276;6.472;2022-08-16T13:09:29;30.70;99.90
4811;DHT22;2419;51.276;6.472;2022-08-16T13:12:09;30.20;99.90
4811;DHT22;2419;51.276;6.472;2022-08-16T13:14:46;30.00;99.90
4811;DHT22;2419;51.276;6.472;2022-08-16T13:17:18;30.10;99.90
4811;DHT22;2419;51.276;6.472;2022-08-16T13:19:51;30.80;99.90
4811;DHT22;2419;51.276;6.472;2022-08-16T13:22:40;30.60;99.90
4811;DHT22;2419;51.276;6.472;2022-08-16T13:25:09;31.20;99.90
4811;DHT22;2419;51.276;6.472;2022-08-16T13:27:47;31.30;99.90
4811;DHT22;2419;51.276;6.472;2022-08-16T13:30:38;31.00;99.90
4811;DHT22;2419;51.276;6.472;2022-08-16T13:33:10;31.00;99.90
4811;DHT22;2419;51.276;6.472;2022-08-16T13:35:46;31.30;99.90
4811;DHT22;2419;51.276;6.472;2022-08-16T13:38:24;31.20;99.90
4811;DHT22;2419;51.276;6.472;2022-08-16T13:41:03;31.10;99.90
4811;DHT22;2419;51.276;6.472;2022-08-16T13:43:35;31.20;99.90
4811;DHT22;2419;51.276;6.472;2022-08-16T13:46:04;31.50;99.90
4811;DHT22;2419;51.276;6.472;2022-08-16T13:48:32;31.00;99.90
4811;DHT22;2419;51.276;6.472;2022-08-16T13:51:12;30.90;99.90
4811;DHT22;2419;51.276;6.472;2022-08-16T13:53:44;31.10;99.90
4811;DHT22;2419;51.276;6.472;2022-08-16T13:56:26;31.40;99.90
4811;DHT22;2419;51.276;6.472;2022-08-16T13:59:06;31.60;99.90
4811;DHT22;2419;51.276;6.472;2022-08-16T14:01:48;31.50;99.90
4811;DHT22;2419;51.276;6.472;2022-08-16T14:04:24;31.20;99.90
4811;DHT22;2419;51.276;6.472;2022-08-16T14:06:55;31.10;99.90
4811;DHT22;2419;51.276;6.472;2022-08-16T14:09:24;31.30;99.90
4811;DHT22;2419;51.276;6.472;2022-08-16T14:11:54;31.20;99.90
4811;DHT22;2419;51.276;6.472;2022-08-16T14:14:23;30.80;99.90
4811;DHT22;2419;51.276;6.472;2022-08-16T14:16:56;30.90;99.90
4811;DHT22;2419;51.276;6.472;2022-08-16T14:19:25;30.70;99.90
4811;DHT22;2419;51.276;6.472;2022-08-16T14:21:58;30.90;99.90
4811;DHT22;2419;51.276;6.472;2022-08-16T14:24:39;31.20;99.90
4811;DHT22;2419;51.276;6.472;2022-08-16T14:27:13;30.60;99.90
4811;DHT22;2419;51.276;6.472;2022-08-16T14:29:41;30.60;99.90
4811;DHT22;2419;51.276;6.472;2022-08-16T14:32:10;30.60;99.90
4811;DHT22;2419;51.276;6.472;2022-08-16T14:34:59;30.50;99.90
4811;DHT22;2419;51.276;6.472;2022-08-16T14:37:29;30.10;99.90
4811;DHT22;2419;51.276;6.472;2022-08-16T14:39:58;30.00;99.90
4811;DHT22;2419;51.276;6.472;2022-08-16T14:42:29;30.00;99.90
4811;DHT22;2419;51.276;6.472;2022-08-16T14:44:57;30.10;99.90
4811;DHT22;2419;51.276;6.472;2022-08-16T14:47:26;30.10;93.60
4811;DHT22;2419;51.276;6.472;2022-08-16T14:50:00;30.10;99.90
4811;DHT22;2419;51.276;6.472;2022-08-16T14:52:29;29.80;99.90
4811;DHT22;2419;51.276;6.472;2022-08-16T14:55:18;30.00;99.90
4811;DHT22;2419;51.276;6.472;2022-08-16T14:57:46;30.00;97.40
4811;DHT22;2419;51.276;6.472;2022-08-16T15:00:21;30.30;99.90
4811;DHT22;2419;51.276;6.472;2022-08-16T15:03:01;30.40;93.40
4811;DHT22;2419;51.276;6.472;2022-08-16T15:05:31;30.20;90.40
4811;DHT22;2419;51.276;6.472;2022-08-16T15:08:02;30.50;64.80
4811;DHT22;2419;51.276;6.472;2022-08-16T15:10:31;30.70;1.00
4811;DHT22;2419;51.276;6.472;2022-08-16T15:13:04;30.80;1.00
4811;DHT22;2419;51.276;6.472;2022-08-16T15:15:35;30.80;1.00
4811;DHT22;2419;51.276;6.472;2022-08-16T15:18:06;30.50;1.00
4811;DHT22;2419;51.276;6.472;2022-08-16T15:20:38;30.30;1.00
4811;DHT22;2419;51.276;6.472;2022-08-16T15:23:09;30.40;1.00
4811;DHT22;2419;51.276;6.472;2022-08-16T15:25:39;30.20;1.00
4811;DHT22;2419;51.276;6.472;2022-08-16T15:28:10;30.20;1.00
4811;DHT22;2419;51.276;6.472;2022-08-16T15:30:57;30.20;1.00
4811;DHT22;2419;51.276;6.472;2022-08-16T15:33:31;30.30;1.00
4811;DHT22;2419;51.276;6.472;2022-08-16T15:36:02;30.10;1.00
4811;DHT22;2419;51.276;6.472;2022-08-16T15:38:34;30.10;1.00
4811;DHT22;2419;51.276;6.472;2022-08-16T15:41:53;30.10;99.90
4811;DHT22;2419;51.276;6.472;2022-08-16T15:44:24;29.90;1.00
4811;DHT22;2419;51.276;6.472;2022-08-16T15:46:54;29.80;1.00
4811;DHT22;2419;51.276;6.472;2022-08-16T15:49:28;29.80;1.00
4811;DHT22;2419;51.276;6.472;2022-08-16T15:52:14;29.80;1.00
4811;DHT22;2419;51.276;6.472;2022-08-16T15:54:45;29.80;1.00
4811;DHT22;2419;51.276;6.472;2022-08-16T15:57:21;29.70;1.00
4811;DHT22;2419;51.276;6.472;2022-08-16T15:59:50;29.80;1.00
4811;DHT22;2419;51.276;6.472;2022-08-16T16:02:23;30.00;1.00
4811;DHT22;2419;51.276;6.472;2022-08-16T16:04:56;30.00;1.00
4811;DHT22;2419;51.276;6.472;2022-08-16T16:07:28;30.20;1.00
4811;DHT22;2419;51.276;6.472;2022-08-16T16:09:58;30.00;1.00
4811;DHT22;2419;51.276;6.472;2022-08-16T16:12:27;30.00;1.00
4811;DHT22;2419;51.276;6.472;2022-08-16T16:15:16;29.90;1.00
4811;DHT22;2419;51.276;6.472;2022-08-16T16:17:48;29.70;1.00
4811;DHT22;2419;51.276;6.472;2022-08-16T16:20:19;30.00;1.00
4811;DHT22;2419;51.276;6.472;2022-08-16T16:22:55;29.90;1.00
4811;DHT22;2419;51.276;6.472;2022-08-16T16:25:25;29.90;1.00
4811;DHT22;2419;51.276;6.472;2022-08-16T16:28:04;29.80;1.00
4811;DHT22;2419;51.276;6.472;2022-08-16T16:30:52;29.70;1.00
4811;DHT22;2419;51.276;6.472;2022-08-16T16:33:25;29.80;1.00
4811;DHT22;2419;51.276;6.472;2022-08-16T16:35:56;29.80;1.00
4811;DHT22;2419;51.276;6.472;2022-08-16T16:38:28;29.70;1.00
4811;DHT22;2419;51.276;6.472;2022-08-16T16:41:00;29.70;99.90
4811;DHT22;2419;51.276;6.472;2022-08-16T16:43:28;29.80;1.00
4811;DHT22;2419;51.276;6.472;2022-08-16T16:46:00;29.90;3.20
4811;DHT22;2419;51.276;6.472;2022-08-16T16:48:49;29.90;1.00
4811;DHT22;2419;51.276;6.472;2022-08-16T16:51:19;30.00;1.00
4811;DHT22;2419;51.276;6.472;2022-08-16T16:53:47;30.00;1.00
4811;DHT22;2419;51.276;6.472;2022-08-16T16:56:24;29.90;1.00
4811;DHT22;2419;51.276;6.472;2022-08-16T16:59:02;29.70;1.00
4811;DHT22;2419;51.276;6.472;2022-08-16T17:01:37;29.60;1.00
4811;DHT22;2419;51.276;6.472;2022-08-16T17:04:24;29.70;1.00
4811;DHT22;2419;51.276;6.472;2022-08-16T17:06:59;29.70;1.00
4811;DHT22;2419;51.276;6.472;2022-08-16T17:09:29;29.50;1.00
4811;DHT22;2419;51.276;6.472;2022-08-16T17:11:59;29.40;1.00
4811;DHT22;2419;51.276;6.472;2022-08-16T17:14:31;29.10;1.00
4811;DHT22;2419;51.276;6.472;2022-08-16T17:17:02;29.00;1.00
4811;DHT22;2419;51.276;6.472;2022-08-16T17:19:34;28.80;99.90
4811;DHT22;2419;51.276;6.472;2022-08-16T17:22:09;28.70;99.90
4811;DHT22;2419;51.276;6.472;2022-08-16T17:24:42;28.60;99.90
4811;DHT22;2419;51.276;6.472;2022-08-16T17:27:20;28.50;99.90
4811;DHT22;2419;51.276;6.472;2022-08-16T17:30:12;28.40;1.00
4811;DHT22;2419;51.276;6.472;2022-08-16T17:32:44;28.30;1.00
4811;DHT22;2419;51.276;6.472;2022-08-16T17:35:23;28.20;1.00